sensor_id;sensor_type;location;lat;lon;timestamp;P1;durP1;ratioP1;P2;durP2;ratioP2
41530;SDS011;58990;46.284;13.126;2022-08-19T00:00:10;6.00;;;2.25;;
41530;SDS011;58990;46.284;13.126;2022-08-19T00:02:36;9.25;;;2.72;;
41530;SDS011;58990;46.284;13.126;2022-08-19T00:05:02;8.23;;;1.95;;
41530;SDS011;58990;46.284;13.126;2022-08-19T00:07:28;5.88;;;2.00;;
41530;SDS011;58990;46.284;13.126;2022-08-19T00:09:54;4.32;;;1.80;;
41530;SDS011;58990;46.284;13.126;2022-08-19T00:12:19;7.93;;;2.03;;
41530;SDS011;58990;46.284;13.126;2022-08-19T00:14:45;6.53;;;2.13;;
41530;SDS011;58990;46.284;13.126;2022-08-19T00:17:11;7.35;;;2.20;;
41530;SDS011;58990;46.284;13.126;2022-08-19T00:19:37;5.20;;;2.00;;
41530;SDS011;58990;46.284;13.126;2022-08-19T00:22:04;4.93;;;1.98;;
41530;SDS011;58990;46.284;13.126;2022-08-19T00:24:30;4.80;;;1.77;;
41530;SDS011;58990;46.284;13.126;2022-08-19T00:26:57;3.03;;;1.65;;
41530;SDS011;58990;46.284;13.126;2022-08-19T00:29:23;7.18;;;1.83;;
41530;SDS011;58990;46.284;13.126;2022-08-19T00:31:50;10.05;;;2.10;;
41530;SDS011;58990;46.284;13.126;2022-08-19T00:34:19;6.18;;;2.10;;
41530;SDS011;58990;46.284;13.126;2022-08-19T00:36:46;7.18;;;1.83;;
41530;SDS011;58990;46.284;13.126;2022-08-19T00:39:13;6.50;;;2.15;;
41530;SDS011;58990;46.284;13.126;2022-08-19T00:41:41;6.22;;;2.08;;
41530;SDS011;58990;46.284;13.126;2022-08-19T00:44:13;6.57;;;1.90;;
41530;SDS011;58990;46.284;13.126;2022-08-19T00:46:41;6.03;;;2.40;;
41530;SDS011;58990;46.284;13.126;2022-08-19T00:49:11;6.40;;;1.73;;
41530;SDS011;58990;46.284;13.126;2022-08-19T00:51:46;7.13;;;2.53;;
41530;SDS011;58990;46.284;13.126;2022-08-19T00:54:15;4.47;;;1.70;;
41530;SDS011;58990;46.284;13.126;2022-08-19T00:56:42;9.68;;;2.30;;
41530;SDS011;58990;46.284;13.126;2022-08-19T00:59:08;6.95;;;2.03;;
41530;SDS011;58990;46.284;13.126;2022-08-19T01:01:35;5.05;;;1.77;;
41530;SDS011;58990;46.284;13.126;2022-08-19T01:04:02;7.75;;;2.42;;
41530;SDS011;58990;46.284;13.126;2022-08-19T01:06:28;7.93;;;2.28;;
41530;SDS011;58990;46.284;13.126;2022-08-19T01:08:56;4.18;;;1.70;;
41530;SDS011;58990;46.284;13.126;2022-08-19T01:11:21;7.55;;;2.25;;
41530;SDS011;58990;46.284;13.126;2022-08-19T01:13:47;5.95;;;2.00;;
41530;SDS011;58990;46.284;13.126;2022-08-19T01:16:15;6.55;;;2.47;;
41530;SDS011;58990;46.284;13.126;2022-08-19T01:18:43;8.10;;;2.05;;
41530;SDS011;58990;46.284;13.126;2022-08-19T01:21:21;6.15;;;2.30;;
41530;SDS011;58990;46.284;13.126;2022-08-19T01:23:53;9.35;;;2.63;;
41530;SDS011;58990;46.284;13.126;2022-08-19T01:26:19;7.63;;;2.05;;
41530;SDS011;58990;46.284;13.126;2022-08-19T01:28:48;7.97;;;2.28;;
41530;SDS011;58990;46.284;13.126;2022-08-19T01:31:17;5.38;;;1.92;;
41530;SDS011;58990;46.284;13.126;2022-08-19T01:33:46;8.18;;;1.90;;
41530;SDS011;58990;46.284;13.126;2022-08-19T01:36:13;8.68;;;1.95;;
41530;SDS011;58990;46.284;13.126;2022-08-19T01:38:55;6.50;;;1.85;;
41530;SDS011;58990;46.284;13.126;2022-08-19T01:41:21;8.43;;;2.25;;
41530;SDS011;58990;46.284;13.126;2022-08-19T01:43:48;5.93;;;2.15;;
41530;SDS011;58990;46.284;13.126;2022-08-19T01:46:15;8.82;;;2.45;;
41530;SDS011;58990;46.284;13.126;2022-08-19T01:48:42;7.60;;;2.03;;
41530;SDS011;58990;46.284;13.126;2022-08-19T01:51:09;9.05;;;2.15;;
41530;SDS011;58990;46.284;13.126;2022-08-19T01:53:36;9.50;;;2.20;;
41530;SDS011;58990;46.284;13.126;2022-08-19T01:56:03;5.78;;;1.90;;
41530;SDS011;58990;46.284;13.126;2022-08-19T01:58:31;6.00;;;2.22;;
41530;SDS011;58990;46.284;13.126;2022-08-19T02:01:00;7.35;;;2.20;;
41530;SDS011;58990;46.284;13.126;2022-08-19T02:03:26;5.53;;;2.08;;
41530;SDS011;58990;46.284;13.126;2022-08-19T02:05:59;8.65;;;2.20;;
41530;SDS011;58990;46.284;13.126;2022-08-19T02:08:27;10.52;;;2.63;;
41530;SDS011;58990;46.284;13.126;2022-08-19T02:10:54;6.95;;;2.38;;
41530;SDS011;58990;46.284;13.126;2022-08-19T02:13:19;8.50;;;2.75;;
41530;SDS011;58990;46.284;13.126;2022-08-19T02:15:45;6.05;;;2.25;;
41530;SDS011;58990;46.284;13.126;2022-08-19T02:18:10;11.43;;;2.40;;
41530;SDS011;58990;46.284;13.126;2022-08-19T02:20:37;8.05;;;2.25;;
41530;SDS011;58990;46.284;13.126;2022-08-19T02:23:03;11.73;;;2.22;;
41530;SDS011;58990;46.284;13.126;2022-08-19T02:25:29;6.82;;;2.22;;
41530;SDS011;58990;46.284;13.126;2022-08-19T02:27:55;10.95;;;2.58;;
41530;SDS011;58990;46.284;13.126;2022-08-19T02:30:20;8.30;;;2.13;;
41530;SDS011;58990;46.284;13.126;2022-08-19T02:32:47;10.40;;;2.90;;
41530;SDS011;58990;46.284;13.126;2022-08-19T02:35:12;7.93;;;2.42;;
41530;SDS011;58990;46.284;13.126;2022-08-19T02:37:39;4.03;;;2.28;;
41530;SDS011;58990;46.284;13.126;2022-08-19T02:40:27;4.65;;;2.20;;
41530;SDS011;58990;46.284;13.126;2022-08-19T02:42:54;8.07;;;2.40;;
41530;SDS011;58990;46.284;13.126;2022-08-19T02:45:19;15.45;;;2.47;;
41530;SDS011;58990;46.284;13.126;2022-08-19T02:47:45;7.22;;;2.33;;
41530;SDS011;58990;46.284;13.126;2022-08-19T02:50:11;7.55;;;2.58;;
41530;SDS011;58990;46.284;13.126;2022-08-19T02:52:37;9.98;;;2.92;;
41530;SDS011;58990;46.284;13.126;2022-08-19T02:57:55;8.38;;;2.60;;
41530;SDS011;58990;46.284;13.126;2022-08-19T03:00:22;12.77;;;2.40;;
41530;SDS011;58990;46.284;13.126;2022-08-19T03:02:49;8.18;;;2.15;;
41530;SDS011;58990;46.284;13.126;2022-08-19T03:05:14;7.97;;;2.10;;
41530;SDS011;58990;46.284;13.126;2022-08-19T03:07:40;9.15;;;2.00;;
41530;SDS011;58990;46.284;13.126;2022-08-19T03:10:06;9.90;;;2.42;;
41530;SDS011;58990;46.284;13.126;2022-08-19T03:12:34;8.00;;;1.92;;
41530;SDS011;58990;46.284;13.126;2022-08-19T03:15:02;3.65;;;1.80;;
41530;SDS011;58990;46.284;13.126;2022-08-19T03:17:30;6.57;;;1.98;;
41530;SDS011;58990;46.284;13.126;2022-08-19T03:19:56;5.10;;;1.70;;
41530;SDS011;58990;46.284;13.126;2022-08-19T03:22:21;6.00;;;1.95;;
41530;SDS011;58990;46.284;13.126;2022-08-19T03:24:47;7.78;;;2.15;;
41530;SDS011;58990;46.284;13.126;2022-08-19T03:27:12;5.88;;;2.05;;
41530;SDS011;58990;46.284;13.126;2022-08-19T03:29:39;6.63;;;2.25;;
41530;SDS011;58990;46.284;13.126;2022-08-19T03:32:05;3.17;;;1.50;;
41530;SDS011;58990;46.284;13.126;2022-08-19T03:34:32;5.00;;;1.63;;
41530;SDS011;58990;46.284;13.126;2022-08-19T03:37:02;3.65;;;1.60;;
41530;SDS011;58990;46.284;13.126;2022-08-19T03:39:29;5.57;;;2.05;;
41530;SDS011;58990;46.284;13.126;2022-08-19T03:41:55;5.88;;;2.08;;
41530;SDS011;58990;46.284;13.126;2022-08-19T03:44:22;2.83;;;1.38;;
41530;SDS011;58990;46.284;13.126;2022-08-19T03:46:49;5.25;;;1.65;;
41530;SDS011;58990;46.284;13.126;2022-08-19T03:49:20;6.03;;;2.08;;
41530;SDS011;58990;46.284;13.126;2022-08-19T03:51:48;4.88;;;2.35;;
41530;SDS011;58990;46.284;13.126;2022-08-19T03:54:16;4.43;;;1.63;;
41530;SDS011;58990;46.284;13.126;2022-08-19T03:56:44;5.82;;;1.75;;
41530;SDS011;58990;46.284;13.126;2022-08-19T03:59:12;5.95;;;1.45;;
41530;SDS011;58990;46.284;13.126;2022-08-19T04:01:40;7.20;;;2.05;;
41530;SDS011;58990;46.284;13.126;2022-08-19T04:04:05;4.88;;;1.98;;
41530;SDS011;58990;46.284;13.126;2022-08-19T04:06:32;5.25;;;1.77;;
41530;SDS011;58990;46.284;13.126;2022-08-19T04:09:01;4.53;;;1.80;;
41530;SDS011;58990;46.284;13.126;2022-08-19T04:11:30;5.90;;;2.00;;
41530;SDS011;58990;46.284;13.126;2022-08-19T04:13:59;3.05;;;1.65;;
41530;SDS011;58990;46.284;13.126;2022-08-19T04:16:25;5.50;;;1.88;;
41530;SDS011;58990;46.284;13.126;2022-08-19T04:18:54;5.93;;;1.70;;
41530;SDS011;58990;46.284;13.126;2022-08-19T04:21:22;6.13;;;1.75;;
41530;SDS011;58990;46.284;13.126;2022-08-19T04:23:50;5.78;;;1.48;;
41530;SDS011;58990;46.284;13.126;2022-08-19T04:26:17;6.78;;;1.58;;
41530;SDS011;58990;46.284;13.126;2022-08-19T04:28:44;4.15;;;1.48;;
41530;SDS011;58990;46.284;13.126;2022-08-19T04:31:22;3.75;;;1.40;;
41530;SDS011;58990;46.284;13.126;2022-08-19T04:33:51;7.47;;;1.60;;
41530;SDS011;58990;46.284;13.126;2022-08-19T04:36:19;3.90;;;1.35;;
41530;SDS011;58990;46.284;13.126;2022-08-19T04:38:47;3.65;;;1.88;;
41530;SDS011;58990;46.284;13.126;2022-08-19T04:41:13;4.25;;;1.38;;
41530;SDS011;58990;46.284;13.126;2022-08-19T04:43:59;3.90;;;1.52;;
41530;SDS011;58990;46.284;13.126;2022-08-19T04:46:25;6.35;;;1.70;;
41530;SDS011;58990;46.284;13.126;2022-08-19T04:48:51;6.30;;;1.88;;
41530;SDS011;58990;46.284;13.126;2022-08-19T04:51:18;6.22;;;1.58;;
41530;SDS011;58990;46.284;13.126;2022-08-19T04:53:45;3.22;;;1.42;;
41530;SDS011;58990;46.284;13.126;2022-08-19T04:56:12;4.18;;;1.35;;
41530;SDS011;58990;46.284;13.126;2022-08-19T04:58:40;2.70;;;1.02;;
41530;SDS011;58990;46.284;13.126;2022-08-19T05:01:07;3.60;;;1.20;;
41530;SDS011;58990;46.284;13.126;2022-08-19T05:03:36;4.68;;;1.30;;
41530;SDS011;58990;46.284;13.126;2022-08-19T05:06:06;7.10;;;1.50;;
41530;SDS011;58990;46.284;13.126;2022-08-19T05:08:34;3.75;;;1.17;;
41530;SDS011;58990;46.284;13.126;2022-08-19T05:11:08;3.72;;;1.00;;
41530;SDS011;58990;46.284;13.126;2022-08-19T05:13:47;5.20;;;1.02;;
41530;SDS011;58990;46.284;13.126;2022-08-19T05:16:14;2.50;;;0.77;;
41530;SDS011;58990;46.284;13.126;2022-08-19T05:18:41;3.65;;;0.90;;
41530;SDS011;58990;46.284;13.126;2022-08-19T05:21:27;2.22;;;1.10;;
41530;SDS011;58990;46.284;13.126;2022-08-19T05:24:14;3.65;;;1.30;;
41530;SDS011;58990;46.284;13.126;2022-08-19T05:26:41;4.65;;;1.80;;
41530;SDS011;58990;46.284;13.126;2022-08-19T05:29:11;4.68;;;1.27;;
41530;SDS011;58990;46.284;13.126;2022-08-19T05:31:37;2.42;;;0.93;;
41530;SDS011;58990;46.284;13.126;2022-08-19T05:34:03;3.35;;;0.82;;
41530;SDS011;58990;46.284;13.126;2022-08-19T05:36:32;2.03;;;0.65;;
41530;SDS011;58990;46.284;13.126;2022-08-19T05:39:00;2.40;;;0.95;;
41530;SDS011;58990;46.284;13.126;2022-08-19T05:41:27;5.07;;;1.10;;
41530;SDS011;58990;46.284;13.126;2022-08-19T05:43:56;6.88;;;1.33;;
41530;SDS011;58990;46.284;13.126;2022-08-19T05:46:22;1.52;;;0.82;;
41530;SDS011;58990;46.284;13.126;2022-08-19T05:48:48;2.70;;;0.90;;
41530;SDS011;58990;46.284;13.126;2022-08-19T05:51:14;1.83;;;0.88;;
41530;SDS011;58990;46.284;13.126;2022-08-19T05:53:41;3.25;;;1.20;;
41530;SDS011;58990;46.284;13.126;2022-08-19T05:56:08;5.45;;;1.30;;
41530;SDS011;58990;46.284;13.126;2022-08-19T05:58:36;2.40;;;1.08;;
41530;SDS011;58990;46.284;13.126;2022-08-19T06:01:02;4.70;;;1.13;;
41530;SDS011;58990;46.284;13.126;2022-08-19T06:03:31;4.55;;;1.38;;
41530;SDS011;58990;46.284;13.126;2022-08-19T06:05:58;6.88;;;1.38;;
41530;SDS011;58990;46.284;13.126;2022-08-19T06:08:25;3.47;;;1.10;;
41530;SDS011;58990;46.284;13.126;2022-08-19T06:10:52;5.30;;;1.10;;
41530;SDS011;58990;46.284;13.126;2022-08-19T06:13:18;2.05;;;1.00;;
41530;SDS011;58990;46.284;13.126;2022-08-19T06:15:44;5.72;;;1.35;;
41530;SDS011;58990;46.284;13.126;2022-08-19T06:18:12;2.50;;;0.95;;
41530;SDS011;58990;46.284;13.126;2022-08-19T06:20:39;3.88;;;1.00;;
41530;SDS011;58990;46.284;13.126;2022-08-19T06:23:05;2.72;;;1.33;;
41530;SDS011;58990;46.284;13.126;2022-08-19T06:25:30;5.93;;;1.25;;
41530;SDS011;58990;46.284;13.126;2022-08-19T06:27:56;4.57;;;1.15;;
41530;SDS011;58990;46.284;13.126;2022-08-19T06:30:22;6.65;;;1.30;;
41530;SDS011;58990;46.284;13.126;2022-08-19T06:32:47;3.65;;;1.20;;
41530;SDS011;58990;46.284;13.126;2022-08-19T06:35:13;4.43;;;1.20;;
41530;SDS011;58990;46.284;13.126;2022-08-19T06:37:39;3.10;;;1.00;;
41530;SDS011;58990;46.284;13.126;2022-08-19T06:40:06;5.75;;;1.25;;
41530;SDS011;58990;46.284;13.126;2022-08-19T06:42:33;5.05;;;1.15;;
41530;SDS011;58990;46.284;13.126;2022-08-19T06:44:59;3.70;;;1.00;;
41530;SDS011;58990;46.284;13.126;2022-08-19T06:47:29;4.32;;;1.38;;
41530;SDS011;58990;46.284;13.126;2022-08-19T06:49:56;4.88;;;1.42;;
41530;SDS011;58990;46.284;13.126;2022-08-19T06:52:26;2.22;;;1.10;;
41530;SDS011;58990;46.284;13.126;2022-08-19T06:54:52;5.90;;;1.60;;
41530;SDS011;58990;46.284;13.126;2022-08-19T06:57:19;2.42;;;0.93;;
41530;SDS011;58990;46.284;13.126;2022-08-19T06:59:44;3.10;;;1.10;;
41530;SDS011;58990;46.284;13.126;2022-08-19T07:02:10;1.25;;;0.82;;
41530;SDS011;58990;46.284;13.126;2022-08-19T07:04:36;2.22;;;1.08;;
41530;SDS011;58990;46.284;13.126;2022-08-19T07:07:05;2.70;;;0.80;;
41530;SDS011;58990;46.284;13.126;2022-08-19T07:09:35;3.53;;;1.30;;
41530;SDS011;58990;46.284;13.126;2022-08-19T07:12:03;3.47;;;1.10;;
41530;SDS011;58990;46.284;13.126;2022-08-19T07:14:31;2.75;;;1.00;;
41530;SDS011;58990;46.284;13.126;2022-08-19T07:17:02;3.42;;;1.48;;
41530;SDS011;58990;46.284;13.126;2022-08-19T07:19:28;2.63;;;1.25;;
41530;SDS011;58990;46.284;13.126;2022-08-19T07:21:54;4.82;;;1.08;;
41530;SDS011;58990;46.284;13.126;2022-08-19T07:24:22;3.13;;;0.90;;
41530;SDS011;58990;46.284;13.126;2022-08-19T07:26:53;3.05;;;1.10;;
41530;SDS011;58990;46.284;13.126;2022-08-19T07:29:28;1.75;;;0.80;;
41530;SDS011;58990;46.284;13.126;2022-08-19T07:31:55;7.32;;;1.13;;
41530;SDS011;58990;46.284;13.126;2022-08-19T07:34:23;2.60;;;1.02;;
41530;SDS011;58990;46.284;13.126;2022-08-19T07:36:50;2.40;;;1.25;;
41530;SDS011;58990;46.284;13.126;2022-08-19T07:39:18;1.55;;;1.10;;
41530;SDS011;58990;46.284;13.126;2022-08-19T07:44:13;4.40;;;1.45;;
41530;SDS011;58990;46.284;13.126;2022-08-19T07:46:41;4.05;;;1.20;;
41530;SDS011;58990;46.284;13.126;2022-08-19T07:49:09;3.22;;;1.40;;
41530;SDS011;58990;46.284;13.126;2022-08-19T07:51:44;4.20;;;0.98;;
41530;SDS011;58990;46.284;13.126;2022-08-19T07:54:11;2.83;;;1.10;;
41530;SDS011;58990;46.284;13.126;2022-08-19T07:56:37;2.53;;;1.20;;
41530;SDS011;58990;46.284;13.126;2022-08-19T07:59:03;7.60;;;2.47;;
41530;SDS011;58990;46.284;13.126;2022-08-19T08:01:29;3.53;;;1.55;;
41530;SDS011;58990;46.284;13.126;2022-08-19T08:03:55;1.40;;;1.30;;
41530;SDS011;58990;46.284;13.126;2022-08-19T08:06:42;5.70;;;1.40;;
41530;SDS011;58990;46.284;13.126;2022-08-19T08:09:30;2.95;;;0.82;;
41530;SDS011;58990;46.284;13.126;2022-08-19T08:12:03;5.25;;;1.27;;
41530;SDS011;58990;46.284;13.126;2022-08-19T08:14:32;3.92;;;1.83;;
41530;SDS011;58990;46.284;13.126;2022-08-19T08:17:01;2.75;;;1.30;;
41530;SDS011;58990;46.284;13.126;2022-08-19T08:19:28;3.42;;;1.05;;
41530;SDS011;58990;46.284;13.126;2022-08-19T08:21:55;2.85;;;1.45;;
41530;SDS011;58990;46.284;13.126;2022-08-19T08:24:23;5.07;;;1.75;;
41530;SDS011;58990;46.284;13.126;2022-08-19T08:26:49;3.90;;;1.48;;
41530;SDS011;58990;46.284;13.126;2022-08-19T08:29:15;3.17;;;0.85;;
41530;SDS011;58990;46.284;13.126;2022-08-19T08:31:41;3.80;;;0.90;;
41530;SDS011;58990;46.284;13.126;2022-08-19T08:34:08;2.78;;;1.02;;
41530;SDS011;58990;46.284;13.126;2022-08-19T08:36:38;1.20;;;0.80;;
41530;SDS011;58990;46.284;13.126;2022-08-19T08:39:06;1.95;;;0.85;;
41530;SDS011;58990;46.284;13.126;2022-08-19T08:41:49;3.63;;;1.38;;
41530;SDS011;58990;46.284;13.126;2022-08-19T08:44:31;3.45;;;1.23;;
41530;SDS011;58990;46.284;13.126;2022-08-19T08:47:09;4.07;;;1.23;;
41530;SDS011;58990;46.284;13.126;2022-08-19T08:49:41;3.30;;;1.08;;
41530;SDS011;58990;46.284;13.126;2022-08-19T08:55:00;6.68;;;1.55;;
41530;SDS011;58990;46.284;13.126;2022-08-19T09:03:16;4.63;;;1.48;;
41530;SDS011;58990;46.284;13.126;2022-08-19T09:17:18;3.65;;;1.38;;
41530;SDS011;58990;46.284;13.126;2022-08-19T09:22:43;3.92;;;1.08;;
41530;SDS011;58990;46.284;13.126;2022-08-19T09:25:10;2.25;;;1.42;;
41530;SDS011;58990;46.284;13.126;2022-08-19T09:27:39;5.80;;;1.67;;
41530;SDS011;58990;46.284;13.126;2022-08-19T09:30:06;3.78;;;1.42;;
41530;SDS011;58990;46.284;13.126;2022-08-19T09:32:33;6.28;;;1.90;;
41530;SDS011;58990;46.284;13.126;2022-08-19T09:34:59;7.53;;;2.20;;
41530;SDS011;58990;46.284;13.126;2022-08-19T09:37:25;7.70;;;1.90;;
41530;SDS011;58990;46.284;13.126;2022-08-19T09:39:51;5.43;;;1.90;;
41530;SDS011;58990;46.284;13.126;2022-08-19T09:42:17;5.93;;;1.50;;
41530;SDS011;58990;46.284;13.126;2022-08-19T09:44:43;4.53;;;1.40;;
41530;SDS011;58990;46.284;13.126;2022-08-19T09:47:09;1.95;;;1.10;;
41530;SDS011;58990;46.284;13.126;2022-08-19T09:49:36;7.80;;;1.70;;
41530;SDS011;58990;46.284;13.126;2022-08-19T09:52:02;5.95;;;1.60;;
41530;SDS011;58990;46.284;13.126;2022-08-19T09:54:28;5.70;;;1.77;;
41530;SDS011;58990;46.284;13.126;2022-08-19T09:56:54;6.47;;;1.60;;
41530;SDS011;58990;46.284;13.126;2022-08-19T09:59:22;4.38;;;1.30;;
41530;SDS011;58990;46.284;13.126;2022-08-19T10:01:48;2.55;;;1.35;;
41530;SDS011;58990;46.284;13.126;2022-08-19T10:04:14;3.33;;;1.10;;
41530;SDS011;58990;46.284;13.126;2022-08-19T10:06:40;2.10;;;1.05;;
41530;SDS011;58990;46.284;13.126;2022-08-19T10:09:07;5.50;;;1.63;;
41530;SDS011;58990;46.284;13.126;2022-08-19T10:11:35;2.13;;;1.20;;
41530;SDS011;58990;46.284;13.126;2022-08-19T10:14:02;4.50;;;1.63;;
41530;SDS011;58990;46.284;13.126;2022-08-19T10:16:31;4.38;;;1.48;;
41530;SDS011;58990;46.284;13.126;2022-08-19T10:18:57;1.98;;;1.40;;
41530;SDS011;58990;46.284;13.126;2022-08-19T10:21:25;4.95;;;1.90;;
41530;SDS011;58990;46.284;13.126;2022-08-19T10:23:53;6.72;;;1.52;;
41530;SDS011;58990;46.284;13.126;2022-08-19T10:26:23;4.88;;;1.33;;
41530;SDS011;58990;46.284;13.126;2022-08-19T10:28:50;3.10;;;0.88;;
41530;SDS011;58990;46.284;13.126;2022-08-19T10:31:18;3.50;;;1.55;;
41530;SDS011;58990;46.284;13.126;2022-08-19T10:33:46;4.27;;;1.43;;
41530;SDS011;58990;46.284;13.126;2022-08-19T10:36:14;2.38;;;1.05;;
41530;SDS011;58990;46.284;13.126;2022-08-19T10:38:46;3.42;;;1.25;;
41530;SDS011;58990;46.284;13.126;2022-08-19T10:41:21;3.80;;;1.48;;
41530;SDS011;58990;46.284;13.126;2022-08-19T10:43:52;4.07;;;1.52;;
41530;SDS011;58990;46.284;13.126;2022-08-19T10:46:23;3.97;;;1.35;;
41530;SDS011;58990;46.284;13.126;2022-08-19T10:48:53;3.90;;;1.30;;
41530;SDS011;58990;46.284;13.126;2022-08-19T10:51:19;2.85;;;1.33;;
41530;SDS011;58990;46.284;13.126;2022-08-19T10:54:05;4.20;;;1.10;;
41530;SDS011;58990;46.284;13.126;2022-08-19T10:56:31;1.63;;;1.10;;
41530;SDS011;58990;46.284;13.126;2022-08-19T10:59:22;3.97;;;1.02;;
41530;SDS011;58990;46.284;13.126;2022-08-19T11:01:52;3.53;;;1.25;;
41530;SDS011;58990;46.284;13.126;2022-08-19T11:04:19;5.43;;;1.10;;
41530;SDS011;58990;46.284;13.126;2022-08-19T11:06:47;2.05;;;0.95;;
41530;SDS011;58990;46.284;13.126;2022-08-19T11:09:18;2.10;;;0.98;;
41530;SDS011;58990;46.284;13.126;2022-08-19T11:11:49;5.57;;;1.30;;
41530;SDS011;58990;46.284;13.126;2022-08-19T11:14:17;3.83;;;0.70;;
41530;SDS011;58990;46.284;13.126;2022-08-19T11:16:48;3.30;;;1.00;;
41530;SDS011;58990;46.284;13.126;2022-08-19T11:19:14;3.80;;;1.23;;
41530;SDS011;58990;46.284;13.126;2022-08-19T11:21:44;4.97;;;1.42;;
41530;SDS011;58990;46.284;13.126;2022-08-19T11:24:13;4.88;;;1.52;;
41530;SDS011;58990;46.284;13.126;2022-08-19T11:26:41;5.03;;;1.23;;
41530;SDS011;58990;46.284;13.126;2022-08-19T11:29:08;3.45;;;1.27;;
41530;SDS011;58990;46.284;13.126;2022-08-19T11:31:42;4.07;;;1.17;;
41530;SDS011;58990;46.284;13.126;2022-08-19T11:34:11;2.95;;;1.02;;
41530;SDS011;58990;46.284;13.126;2022-08-19T11:36:40;2.45;;;1.00;;
41530;SDS011;58990;46.284;13.126;2022-08-19T11:39:07;1.48;;;1.00;;
41530;SDS011;58990;46.284;13.126;2022-08-19T11:41:34;2.03;;;1.00;;
41530;SDS011;58990;46.284;13.126;2022-08-19T11:44:00;3.75;;;1.48;;
41530;SDS011;58990;46.284;13.126;2022-08-19T11:46:27;2.63;;;1.13;;
41530;SDS011;58990;46.284;13.126;2022-08-19T11:48:54;5.18;;;1.20;;
41530;SDS011;58990;46.284;13.126;2022-08-19T11:51:24;1.42;;;0.82;;
41530;SDS011;58990;46.284;13.126;2022-08-19T11:53:51;5.88;;;1.08;;
41530;SDS011;58990;46.284;13.126;2022-08-19T11:56:21;5.55;;;2.20;;
41530;SDS011;58990;46.284;13.126;2022-08-19T11:58:51;1.45;;;0.88;;
41530;SDS011;58990;46.284;13.126;2022-08-19T12:01:18;1.00;;;0.60;;
41530;SDS011;58990;46.284;13.126;2022-08-19T12:03:46;2.05;;;1.05;;
41530;SDS011;58990;46.284;13.126;2022-08-19T12:06:14;3.63;;;1.00;;
41530;SDS011;58990;46.284;13.126;2022-08-19T12:08:42;2.90;;;0.80;;
41530;SDS011;58990;46.284;13.126;2022-08-19T12:11:09;5.00;;;1.33;;
41530;SDS011;58990;46.284;13.126;2022-08-19T12:13:36;1.92;;;0.82;;
41530;SDS011;58990;46.284;13.126;2022-08-19T12:16:08;3.97;;;0.85;;
41530;SDS011;58990;46.284;13.126;2022-08-19T12:18:41;2.83;;;0.80;;
41530;SDS011;58990;46.284;13.126;2022-08-19T12:21:11;2.35;;;0.75;;
41530;SDS011;58990;46.284;13.126;2022-08-19T12:23:38;0.50;;;0.43;;
41530;SDS011;58990;46.284;13.126;2022-08-19T12:26:05;1.95;;;0.68;;
41530;SDS011;58990;46.284;13.126;2022-08-19T12:28:30;2.10;;;0.70;;
41530;SDS011;58990;46.284;13.126;2022-08-19T12:30:56;2.75;;;0.82;;
41530;SDS011;58990;46.284;13.126;2022-08-19T12:33:22;3.30;;;0.73;;
41530;SDS011;58990;46.284;13.126;2022-08-19T12:35:51;2.83;;;0.90;;
41530;SDS011;58990;46.284;13.126;2022-08-19T12:38:17;2.63;;;0.93;;
41530;SDS011;58990;46.284;13.126;2022-08-19T12:40:46;1.33;;;0.68;;
41530;SDS011;58990;46.284;13.126;2022-08-19T12:45:40;2.28;;;0.90;;
41530;SDS011;58990;46.284;13.126;2022-08-19T12:48:07;2.67;;;0.80;;
41530;SDS011;58990;46.284;13.126;2022-08-19T12:50:33;0.95;;;0.73;;
41530;SDS011;58990;46.284;13.126;2022-08-19T12:52:59;1.42;;;0.80;;
41530;SDS011;58990;46.284;13.126;2022-08-19T12:55:25;3.03;;;0.90;;
41530;SDS011;58990;46.284;13.126;2022-08-19T12:57:53;1.00;;;0.77;;
41530;SDS011;58990;46.284;13.126;2022-08-19T13:00:19;3.05;;;0.80;;
41530;SDS011;58990;46.284;13.126;2022-08-19T13:02:47;2.67;;;0.77;;
41530;SDS011;58990;46.284;13.126;2022-08-19T13:05:20;2.33;;;0.90;;
41530;SDS011;58990;46.284;13.126;2022-08-19T13:07:48;2.78;;;1.05;;
41530;SDS011;58990;46.284;13.126;2022-08-19T13:10:16;0.68;;;0.52;;
41530;SDS011;58990;46.284;13.126;2022-08-19T13:12:45;0.85;;;0.80;;
41530;SDS011;58990;46.284;13.126;2022-08-19T13:15:12;1.13;;;0.80;;
41530;SDS011;58990;46.284;13.126;2022-08-19T13:17:39;2.85;;;0.63;;
41530;SDS011;58990;46.284;13.126;2022-08-19T13:20:05;3.60;;;1.20;;
41530;SDS011;58990;46.284;13.126;2022-08-19T13:22:33;1.05;;;0.50;;
41530;SDS011;58990;46.284;13.126;2022-08-19T13:25:00;5.50;;;0.80;;
41530;SDS011;58990;46.284;13.126;2022-08-19T13:27:26;3.90;;;1.17;;
41530;SDS011;58990;46.284;13.126;2022-08-19T13:29:52;2.53;;;1.00;;
41530;SDS011;58990;46.284;13.126;2022-08-19T13:32:37;1.85;;;0.70;;
41530;SDS011;58990;46.284;13.126;2022-08-19T13:35:22;1.70;;;0.70;;
41530;SDS011;58990;46.284;13.126;2022-08-19T13:37:48;1.60;;;1.00;;
41530;SDS011;58990;46.284;13.126;2022-08-19T13:40:15;3.42;;;1.02;;
41530;SDS011;58990;46.284;13.126;2022-08-19T13:45:12;2.53;;;0.80;;
41530;SDS011;58990;46.284;13.126;2022-08-19T13:47:39;1.75;;;0.63;;
41530;SDS011;58990;46.284;13.126;2022-08-19T13:50:10;3.22;;;0.70;;
41530;SDS011;58990;46.284;13.126;2022-08-19T13:52:38;2.00;;;0.80;;
41530;SDS011;58990;46.284;13.126;2022-08-19T13:55:04;1.52;;;0.60;;
41530;SDS011;58990;46.284;13.126;2022-08-19T13:57:31;3.63;;;0.70;;
41530;SDS011;58990;46.284;13.126;2022-08-19T13:59:57;1.67;;;0.93;;
41530;SDS011;58990;46.284;13.126;2022-08-19T14:02:23;3.03;;;0.75;;
41530;SDS011;58990;46.284;13.126;2022-08-19T14:04:49;1.90;;;0.77;;
41530;SDS011;58990;46.284;13.126;2022-08-19T14:07:15;3.72;;;0.80;;
41530;SDS011;58990;46.284;13.126;2022-08-19T14:09:41;2.13;;;0.90;;
41530;SDS011;58990;46.284;13.126;2022-08-19T14:12:06;3.22;;;0.98;;
41530;SDS011;58990;46.284;13.126;2022-08-19T14:14:35;5.50;;;0.90;;
41530;SDS011;58990;46.284;13.126;2022-08-19T14:17:05;2.13;;;0.93;;
41530;SDS011;58990;46.284;13.126;2022-08-19T14:19:31;3.05;;;1.02;;
41530;SDS011;58990;46.284;13.126;2022-08-19T14:21:57;3.45;;;1.40;;
41530;SDS011;58990;46.284;13.126;2022-08-19T14:24:22;1.95;;;0.90;;
41530;SDS011;58990;46.284;13.126;2022-08-19T14:26:48;1.50;;;0.93;;
41530;SDS011;58990;46.284;13.126;2022-08-19T14:29:13;3.17;;;0.73;;
41530;SDS011;58990;46.284;13.126;2022-08-19T14:31:39;1.85;;;0.60;;
41530;SDS011;58990;46.284;13.126;2022-08-19T14:34:05;2.53;;;0.75;;
41530;SDS011;58990;46.284;13.126;2022-08-19T14:36:31;2.97;;;0.80;;
41530;SDS011;58990;46.284;13.126;2022-08-19T14:38:59;2.20;;;0.85;;
41530;SDS011;58990;46.284;13.126;2022-08-19T14:41:25;1.85;;;0.70;;
41530;SDS011;58990;46.284;13.126;2022-08-19T14:43:53;4.38;;;0.77;;
41530;SDS011;58990;46.284;13.126;2022-08-19T14:46:20;2.05;;;0.73;;
41530;SDS011;58990;46.284;13.126;2022-08-19T14:48:48;1.38;;;0.95;;
41530;SDS011;58990;46.284;13.126;2022-08-19T14:51:14;3.10;;;1.05;;
41530;SDS011;58990;46.284;13.126;2022-08-19T14:53:40;2.83;;;0.90;;
41530;SDS011;58990;46.284;13.126;2022-08-19T14:56:07;1.27;;;0.77;;
41530;SDS011;58990;46.284;13.126;2022-08-19T14:58:34;3.15;;;1.17;;
41530;SDS011;58990;46.284;13.126;2022-08-19T15:01:00;3.00;;;0.73;;
41530;SDS011;58990;46.284;13.126;2022-08-19T15:03:25;1.95;;;0.80;;
41530;SDS011;58990;46.284;13.126;2022-08-19T15:05:51;4.00;;;0.93;;
41530;SDS011;58990;46.284;13.126;2022-08-19T15:08:17;1.55;;;0.90;;
41530;SDS011;58990;46.284;13.126;2022-08-19T15:10:44;2.45;;;0.95;;